Time;durP1;ratioP1;P1;durP2;ratioP2;P2;SDS_P1;SDS_P2;PMS_P1;PMS_P2;Temp;Humidity;BMP_temperature;BMP_pressure;BME280_temperature;BME280_humidity;BME280_pressure;Samples;Min_cycle;Max_cycle;Signal;HPM_P1;HPM_P2
2021/06/24 00:01:47;;;;;;;13.60;4.07;;;24.00;85.10;;;;;;5093692;28;20489;-75
2021/06/24 00:04:13;;;;;;;7.65;4.13;;;24.00;85.20;;;;;;5093787;28;20047;-75
2021/06/24 00:06:38;;;;;;;5.90;3.20;;;24.00;85.40;;;;;;5075464;28;20033;-75
2021/06/24 00:09:06;;;;;;;4.32;3.40;;;24.00;85.50;;;;;;5075192;28;20490;-75
2021/06/24 00:11:32;;;;;;;5.72;3.40;;;24.00;85.70;;;;;;5093447;28;20508;-75
2021/06/24 00:13:58;;;;;;;12.30;3.75;;;24.00;85.50;;;;;;5093434;28;20024;-75
2021/06/24 00:16:25;;;;;;;9.00;3.67;;;24.00;85.70;;;;;;5093163;28;20503;-75
2021/06/24 00:18:51;;;;;;;10.40;3.83;;;23.90;85.60;;;;;;5093321;28;20020;-75
2021/06/24 00:21:17;;;;;;;8.85;3.58;;;23.90;85.60;;;;;;5093210;28;20385;-75
2021/06/24 00:23:42;;;;;;;11.88;3.97;;;23.80;85.80;;;;;;5093220;28;20431;-75
2021/06/24 00:26:08;;;;;;;8.05;3.58;;;23.90;86.00;;;;;;5093136;28;20021;-75
2021/06/24 00:28:34;;;;;;;11.65;3.10;;;23.90;85.90;;;;;;5093079;28;20525;-75
2021/06/24 00:31:01;;;;;;;9.55;3.67;;;23.80;85.50;;;;;;5074706;28;20401;-75
2021/06/24 00:33:28;;;;;;;6.88;3.45;;;23.80;85.60;;;;;;5058576;28;20414;-75
2021/06/24 00:35:54;;;;;;;7.32;3.28;;;23.80;85.80;;;;;;5092987;28;20024;-75
2021/06/24 00:38:20;;;;;;;9.23;3.03;;;23.90;85.90;;;;;;5092873;28;20024;-75
2021/06/24 00:40:46;;;;;;;8.30;3.40;;;23.90;85.60;;;;;;5092917;28;20524;-75
2021/06/24 00:43:15;;;;;;;8.32;3.75;;;23.80;85.90;;;;;;5092863;28;20032;-75
2021/06/24 00:45:41;;;;;;;4.05;3.17;;;23.70;86.10;;;;;;5092685;28;20543;-75
2021/06/24 00:48:08;;;;;;;9.65;3.58;;;23.70;86.10;;;;;;5092692;28;20434;-75
2021/06/24 00:50:36;;;;;;;10.27;3.33;;;23.70;86.20;;;;;;5092817;28;20107;-75
2021/06/24 00:53:02;;;;;;;5.30;3.15;;;23.70;86.30;;;;;;5074441;28;20556;-75
2021/06/24 00:55:44;;;;;;;9.52;3.17;;;23.70;86.30;;;;;;5092538;28;20096;-75
2021/06/24 00:58:27;;;;;;;9.50;3.85;;;23.60;86.30;;;;;;5092540;28;20020;-75
2021/06/24 01:00:55;;;;;;;7.97;3.25;;;23.60;86.20;;;;;;5074365;28;20062;-75
2021/06/24 01:03:21;;;;;;;6.65;3.47;;;23.60;86.10;;;;;;5092426;28;20028;-75
2021/06/24 01:05:47;;;;;;;3.58;2.92;;;23.60;86.00;;;;;;5092251;28;20031;-75
2021/06/24 01:08:15;;;;;;;4.90;3.35;;;23.60;85.90;;;;;;5092459;28;20027;-75
2021/06/24 01:10:45;;;;;;;9.20;3.92;;;23.60;85.60;;;;;;5092521;28;20031;-75
2021/06/24 01:13:13;;;;;;;9.02;3.38;;;23.60;85.50;;;;;;5090998;28;20385;-75
2021/06/24 01:15:39;;;;;;;5.03;3.45;;;23.60;85.20;;;;;;5092020;28;20016;-75
2021/06/24 01:18:06;;;;;;;6.28;3.15;;;23.60;85.00;;;;;;5083347;28;20394;-75
2021/06/24 01:20:35;;;;;;;8.82;3.58;;;23.60;84.90;;;;;;5071974;28;20021;-75
2021/06/24 01:23:03;;;;;;;6.22;3.20;;;23.60;85.00;;;;;;5053995;28;20063;-75
2021/06/24 01:25:29;;;;;;;5.10;3.22;;;23.60;84.90;;;;;;5071649;28;20421;-74
2021/06/24 01:27:59;;;;;;;4.28;3.40;;;23.70;84.60;;;;;;5071626;28;20027;-75
2021/06/24 01:30:27;;;;;;;3.38;2.58;;;23.70;84.50;;;;;;5071757;28;20119;-75
2021/06/24 01:32:53;;;;;;;6.70;3.70;;;23.70;84.50;;;;;;5071746;28;20029;-75
2021/06/24 01:35:20;;;;;;;9.30;3.10;;;23.70;84.20;;;;;;5071627;28;20433;-75
2021/06/24 01:37:46;;;;;;;5.70;3.38;;;23.70;84.10;;;;;;5071609;28;20027;-75
2021/06/24 01:40:13;;;;;;;8.75;3.38;;;23.70;83.90;;;;;;5071550;28;20021;-74
2021/06/24 01:43:22;;;;;;;6.97;2.70;;;23.70;84.20;;;;;;5088745;28;20484;-75
2021/06/24 01:45:54;;;;;;;11.02;3.90;;;23.60;84.20;;;;;;5091542;28;20399;-75
2021/06/24 01:48:20;;;;;;;8.15;3.00;;;23.60;84.30;;;;;;5073512;28;20439;-75
2021/06/24 01:50:47;;;;;;;10.45;3.70;;;23.60;84.30;;;;;;5091697;28;20077;-75
2021/06/24 01:53:13;;;;;;;9.07;3.05;;;23.60;83.80;;;;;;5091638;28;20043;-75
2021/06/24 01:55:40;;;;;;;11.77;3.47;;;23.60;83.70;;;;;;5091529;28;20024;-75
2021/06/24 01:58:08;;;;;;;7.85;3.13;;;23.60;83.90;;;;;;5091670;28;20553;-75
2021/06/24 02:00:34;;;;;;;6.88;2.85;;;23.50;83.90;;;;;;5091597;28;20020;-75
2021/06/24 02:03:02;;;;;;;5.10;2.92;;;23.50;83.90;;;;;;5091631;28;20529;-75
2021/06/24 02:05:28;;;;;;;3.05;2.80;;;23.50;83.60;;;;;;5091384;28;20028;-75
2021/06/24 02:07:54;;;;;;;3.80;2.78;;;23.50;83.50;;;;;;5091535;28;20039;-75
2021/06/24 02:10:20;;;;;;;5.07;2.58;;;23.50;84.10;;;;;;5091658;28;20020;-74
2021/06/24 02:12:46;;;;;;;5.20;2.75;;;23.40;84.40;;;;;;5073186;28;20028;-75
2021/06/24 02:15:14;;;;;;;7.63;3.22;;;23.40;84.30;;;;;;5094990;28;20034;-75
2021/06/24 02:17:40;;;;;;;3.45;2.60;;;23.40;84.40;;;;;;5095698;28;20022;-75
2021/06/24 02:20:12;;;;;;;7.38;3.03;;;23.40;84.30;;;;;;5077454;28;20016;-75
2021/06/24 02:22:39;;;;;;;5.43;3.13;;;23.40;84.50;;;;;;5077592;28;20027;-75
2021/06/24 02:25:06;;;;;;;9.70;3.40;;;23.40;84.70;;;;;;5095318;28;20054;-75
2021/06/24 02:27:32;;;;;;;5.50;3.05;;;23.40;84.50;;;;;;5095310;28;20366;-75
2021/06/24 02:29:58;;;;;;;5.10;2.65;;;23.30;84.30;;;;;;5095302;28;20059;-74
2021/06/24 02:32:24;;;;;;;8.85;2.90;;;23.40;84.20;;;;;;5095283;28;20028;-75
2021/06/24 02:34:52;;;;;;;3.30;2.67;;;23.40;84.30;;;;;;5095150;28;20125;-75
2021/06/24 02:37:17;;;;;;;12.93;3.40;;;23.40;83.70;;;;;;5077210;28;20024;-74
2021/06/24 02:39:43;;;;;;;6.38;3.30;;;23.40;83.70;;;;;;5095153;28;20012;-75
2021/06/24 02:42:09;;;;;;;3.72;3.00;;;23.40;83.50;;;;;;5095114;28;20059;-75
2021/06/24 02:44:35;;;;;;;5.85;2.72;;;23.40;83.30;;;;;;5095175;28;20028;-75
2021/06/24 02:47:00;;;;;;;2.97;2.60;;;23.30;83.80;;;;;;5076886;28;20113;-75
2021/06/24 02:49:26;;;;;;;3.50;2.85;;;23.30;83.70;;;;;;5076943;28;20040;-75
2021/06/24 02:51:52;;;;;;;4.95;2.70;;;23.30;83.40;;;;;;5095232;28;20028;-75
2021/06/24 02:54:18;;;;;;;8.00;3.00;;;23.20;83.60;;;;;;5094939;28;20237;-75
2021/06/24 02:56:44;;;;;;;5.25;2.58;;;23.20;83.50;;;;;;5076759;28;20073;-75
2021/06/24 02:59:11;;;;;;;2.95;2.60;;;23.20;84.00;;;;;;5094889;28;20024;-75
2021/06/24 03:01:38;;;;;;;6.90;2.85;;;23.20;83.60;;;;;;5094835;28;20016;-75
2021/06/24 03:04:08;;;;;;;5.57;2.70;;;23.20;83.50;;;;;;5094744;28;20062;-75
2021/06/24 03:06:34;;;;;;;2.97;2.58;;;23.20;83.60;;;;;;5094692;28;20055;-74
2021/06/24 03:09:05;;;;;;;4.13;2.45;;;23.20;83.00;;;;;;5094863;28;20036;-75
2021/06/24 03:11:31;;;;;;;6.53;3.30;;;23.10;82.90;;;;;;5094640;28;20031;-75
2021/06/24 03:13:56;;;;;;;5.20;3.00;;;23.10;83.20;;;;;;5094496;28;20024;-74
2021/06/24 03:16:22;;;;;;;9.77;2.80;;;23.10;82.90;;;;;;5076365;28;20067;-75
2021/06/24 03:18:49;;;;;;;7.68;2.78;;;23.20;82.80;;;;;;5076422;28;20165;-74
2021/06/24 03:21:17;;;;;;;3.10;2.60;;;23.10;82.50;;;;;;5094413;28;20016;-75
2021/06/24 03:23:43;;;;;;;5.22;2.90;;;23.10;82.60;;;;;;5060234;28;20024;-75
2021/06/24 03:26:08;;;;;;;3.67;2.40;;;23.20;82.60;;;;;;5056259;28;20036;-75
2021/06/24 03:28:34;;;;;;;5.95;2.70;;;23.20;82.60;;;;;;5055995;28;20127;-75
2021/06/24 03:31:00;;;;;;;5.47;2.53;;;23.10;82.30;;;;;;5074007;28;20016;-74
2021/06/24 03:33:26;;;;;;;10.30;2.90;;;23.10;82.30;;;;;;5074122;28;20021;-74
2021/06/24 03:35:52;;;;;;;4.85;2.92;;;23.20;82.10;;;;;;5055908;28;20032;-75
2021/06/24 03:38:19;;;;;;;2.78;2.30;;;23.20;82.90;;;;;;5055824;28;20390;-74
2021/06/24 03:40:44;;;;;;;4.88;3.00;;;23.10;82.00;;;;;;5056926;28;20039;-75
2021/06/24 03:43:10;;;;;;;3.92;2.92;;;23.10;81.90;;;;;;5094025;28;20385;-75
2021/06/24 03:45:37;;;;;;;5.38;2.58;;;23.10;82.10;;;;;;5093901;28;20423;-75
2021/06/24 03:48:04;;;;;;;9.32;2.67;;;23.00;82.10;;;;;;5075934;28;20062;-74
2021/06/24 03:50:30;;;;;;;7.85;2.75;;;23.00;82.30;;;;;;5093938;28;20016;-75
2021/06/24 03:52:56;;;;;;;6.55;2.70;;;23.00;82.50;;;;;;5093800;28;20028;-74
2021/06/24 03:55:35;;;;;;;3.85;2.65;;;23.00;82.70;;;;;;5093821;28;20099;-75
2021/06/24 03:58:02;;;;;;;6.03;2.90;;;23.00;82.70;;;;;;5075476;28;20024;-75
2021/06/24 04:00:28;;;;;;;9.55;2.60;;;23.00;82.90;;;;;;5093719;28;20110;-74
2021/06/24 04:02:53;;;;;;;3.75;2.50;;;22.90;82.80;;;;;;5093862;28;20107;-75
2021/06/24 04:05:19;;;;;;;3.08;2.88;;;22.90;82.80;;;;;;5075418;28;20024;-75
2021/06/24 04:07:45;;;;;;;5.25;3.17;;;22.80;82.90;;;;;;5093554;28;20016;-75
2021/06/24 04:10:12;;;;;;;9.13;2.75;;;22.90;83.30;;;;;;5093563;28;20060;-74
2021/06/24 04:12:38;;;;;;;2.60;2.40;;;22.90;82.90;;;;;;5093403;28;20016;-75
2021/06/24 04:15:05;;;;;;;4.90;2.50;;;22.90;83.00;;;;;;5093311;28;20027;-75
2021/06/24 04:17:31;;;;;;;3.00;2.35;;;22.90;82.40;;;;;;5093340;28;20478;-75
2021/06/24 04:19:56;;;;;;;3.88;2.35;;;22.90;82.60;;;;;;5093338;28;20032;-75
2021/06/24 04:22:23;;;;;;;7.45;3.55;;;23.00;82.60;;;;;;5075236;28;20024;-75
2021/06/24 04:24:48;;;;;;;4.85;2.60;;;23.00;82.60;;;;;;5093285;28;20028;-75
2021/06/24 04:27:14;;;;;;;3.70;2.70;;;23.00;82.50;;;;;;5093256;28;20123;-77
2021/06/24 04:29:40;;;;;;;5.70;2.97;;;23.00;82.40;;;;;;5093133;28;20060;-75
2021/06/24 04:32:06;;;;;;;4.07;3.00;;;23.10;82.20;;;;;;5092978;28;20077;-74
2021/06/24 04:34:32;;;;;;;2.88;2.47;;;23.20;82.30;;;;;;5093174;28;20024;-74
2021/06/24 04:36:58;;;;;;;5.65;2.45;;;23.20;82.70;;;;;;5074245;28;20024;-74
2021/06/24 04:39:24;;;;;;;5.82;2.67;;;23.20;82.70;;;;;;5093121;28;20431;-74
2021/06/24 04:41:49;;;;;;;10.10;3.03;;;23.20;82.60;;;;;;5092992;28;20028;-74
2021/06/24 04:44:15;;;;;;;7.22;2.95;;;23.20;82.80;;;;;;5092945;28;20128;-74
2021/06/24 04:46:41;;;;;;;5.95;3.38;;;23.30;82.80;;;;;;5092931;28;20024;-75
2021/06/24 04:49:07;;;;;;;7.95;3.03;;;23.30;83.10;;;;;;5074708;28;20394;-75
2021/06/24 04:51:33;;;;;;;3.88;2.92;;;23.40;83.10;;;;;;5092693;28;20021;-75
2021/06/24 04:53:58;;;;;;;5.85;3.58;;;23.40;83.40;;;;;;5092744;28;20386;-74
2021/06/24 04:56:24;;;;;;;12.32;2.63;;;23.50;83.50;;;;;;5092634;28;20027;-74
2021/06/24 04:58:50;;;;;;;2.75;2.55;;;23.50;83.40;;;;;;5091393;28;20066;-75
2021/06/24 05:01:16;;;;;;;7.00;2.42;;;23.60;83.60;;;;;;5075865;28;20626;-74
2021/06/24 05:03:41;;;;;;;9.35;3.13;;;23.60;83.90;;;;;;5092823;28;20024;-75
2021/06/24 05:06:09;;;;;;;12.07;3.10;;;23.60;84.00;;;;;;5092400;28;20013;-77
2021/06/24 05:08:36;;;;;;;8.25;3.05;;;23.60;83.60;;;;;;5077190;28;20081;-77
2021/06/24 05:11:01;;;;;;;4.75;3.13;;;23.70;83.60;;;;;;5093269;28;20030;-77
2021/06/24 05:13:28;;;;;;;3.45;2.95;;;23.80;83.50;;;;;;5075083;28;20032;-77
2021/06/24 05:15:53;;;;;;;8.20;2.88;;;23.80;83.60;;;;;;5074661;28;20069;-77
2021/06/24 05:18:19;;;;;;;5.35;3.35;;;23.90;84.00;;;;;;5074768;28;20024;-77
2021/06/24 05:20:46;;;;;;;5.93;2.90;;;23.90;84.10;;;;;;5074218;28;20093;-77
2021/06/24 05:23:17;;;;;;;7.10;2.80;;;24.00;84.10;;;;;;5090818;28;20032;-77
2021/06/24 05:25:43;;;;;;;4.82;3.58;;;24.00;84.20;;;;;;5071999;28;20059;-76
2021/06/24 05:28:10;;;;;;;8.30;3.15;;;24.00;84.40;;;;;;5071971;28;20020;-77
2021/06/24 05:30:36;;;;;;;6.55;3.22;;;24.10;84.70;;;;;;5090167;28;20040;-77
2021/06/24 05:33:03;;;;;;;9.20;3.25;;;24.10;85.30;;;;;;5076361;28;20028;-77
2021/06/24 05:35:29;;;;;;;9.07;3.83;;;24.10;85.30;;;;;;5069904;28;20024;-77
2021/06/24 05:37:55;;;;;;;8.02;2.85;;;24.10;85.30;;;;;;5070992;28;20020;-77
2021/06/24 05:40:22;;;;;;;12.90;3.40;;;24.20;85.40;;;;;;5071970;28;20047;-77
2021/06/24 05:42:48;;;;;;;7.60;3.13;;;24.30;85.50;;;;;;5089873;28;20027;-76
2021/06/24 05:45:14;;;;;;;6.57;3.17;;;24.30;85.60;;;;;;5091646;28;20028;-77
2021/06/24 05:47:40;;;;;;;10.02;2.80;;;24.40;85.80;;;;;;5091678;28;20028;-77
2021/06/24 05:50:06;;;;;;;8.95;3.70;;;24.40;85.30;;;;;;5091359;28;20028;-77
2021/06/24 05:52:32;;;;;;;18.23;4.50;;;24.50;89.40;;;;;;5073504;28;20032;-76
2021/06/24 05:54:58;;;;;;;11.38;4.82;;;24.50;90.60;;;;;;5091737;28;20188;-77
2021/06/24 05:57:26;;;;;;;13.07;4.47;;;24.60;91.30;;;;;;5091624;28;20091;-76
2021/06/24 05:59:54;;;;;;;5.68;4.10;;;24.70;91.80;;;;;;5091694;28;20024;-76
2021/06/24 06:02:20;;;;;;;7.63;4.30;;;24.70;91.40;;;;;;5073532;28;20077;-76
2021/06/24 06:04:45;;;;;;;12.02;4.30;;;24.70;91.50;;;;;;5091691;28;20032;-77
2021/06/24 06:07:11;;;;;;;13.88;4.13;;;24.80;91.60;;;;;;5073611;28;20024;-76
2021/06/24 06:09:37;;;;;;;7.82;4.72;;;24.80;91.60;;;;;;5091744;28;20031;-76
2021/06/24 06:12:05;;;;;;;15.38;5.13;;;24.80;91.40;;;;;;5091545;28;20110;-77
2021/06/24 06:14:31;;;;;;;11.82;4.45;;;24.90;91.10;;;;;;5091593;28;20424;-76
2021/06/24 06:16:57;;;;;;;7.00;4.55;;;24.90;90.50;;;;;;5091525;28;20024;-76
2021/06/24 06:19:23;;;;;;;6.05;4.28;;;24.90;90.40;;;;;;5091708;28;20082;-76
2021/06/24 06:21:48;;;;;;;12.30;4.95;;;24.90;90.30;;;;;;5091471;28;20502;-77
2021/06/24 06:24:14;;;;;;;14.43;5.15;;;25.00;89.80;;;;;;5091525;28;20050;-77
2021/06/24 06:26:40;;;;;;;14.85;5.15;;;25.00;90.30;;;;;;5073322;28;20034;-77
2021/06/24 06:29:06;;;;;;;11.55;4.38;;;25.00;90.60;;;;;;5091372;28;20056;-77
2021/06/24 06:31:35;;;;;;;7.72;4.00;;;25.10;90.10;;;;;;5073288;28;20032;-76
2021/06/24 06:34:01;;;;;;;10.30;4.55;;;25.10;90.20;;;;;;5091535;28;20020;-76
2021/06/24 06:36:27;;;;;;;12.93;4.80;;;25.10;90.00;;;;;;5091603;28;20020;-76
2021/06/24 06:38:53;;;;;;;9.45;4.93;;;25.20;90.50;;;;;;5091260;28;20027;-76
2021/06/24 06:41:19;;;;;;;13.73;5.55;;;25.20;90.40;;;;;;5091576;28;20024;-76
2021/06/24 06:43:45;;;;;;;17.83;4.65;;;25.20;90.10;;;;;;5091359;28;20064;-77
2021/06/24 06:46:11;;;;;;;8.55;4.90;;;25.30;90.00;;;;;;5072944;28;20389;-76
2021/06/24 06:48:37;;;;;;;13.27;5.20;;;25.30;89.50;;;;;;5091400;28;20020;-76
2021/06/24 06:51:03;;;;;;;9.13;5.30;;;25.30;89.60;;;;;;5091210;28;20478;-76
2021/06/24 06:53:28;;;;;;;17.75;4.85;;;25.30;89.50;;;;;;5091113;28;20032;-76
2021/06/24 06:55:54;;;;;;;11.95;4.85;;;25.40;90.00;;;;;;5091303;28;20023;-76
2021/06/24 06:58:20;;;;;;;9.02;4.45;;;25.40;90.60;;;;;;5073090;28;20020;-77
2021/06/24 07:00:46;;;;;;;8.73;4.78;;;25.50;90.60;;;;;;5093668;28;20491;-76
2021/06/24 07:03:11;;;;;;;13.15;4.40;;;25.50;90.50;;;;;;5095137;28;20020;-76
2021/06/24 07:05:37;;;;;;;14.40;4.57;;;25.60;90.80;;;;;;5094727;28;20516;-76
2021/06/24 07:08:04;;;;;;;11.02;4.68;;;25.50;90.10;;;;;;5094863;28;20024;-76
2021/06/24 07:10:29;;;;;;;13.35;5.00;;;25.60;90.20;;;;;;5094899;28;20055;-76
2021/06/24 07:12:55;;;;;;;12.05;4.50;;;25.70;90.40;;;;;;5076212;28;20452;-76
2021/06/24 07:15:21;;;;;;;16.88;5.60;;;25.70;90.20;;;;;;5094602;28;20037;-76
2021/06/24 07:17:47;;;;;;;7.30;4.57;;;25.70;90.00;;;;;;5094884;28;20012;-76
2021/06/24 07:20:14;;;;;;;8.90;4.38;;;25.70;89.40;;;;;;5094424;28;20032;-76
2021/06/24 07:22:40;;;;;;;11.63;4.90;;;25.80;87.70;;;;;;5090442;28;20549;-76
2021/06/24 07:25:08;;;;;;;9.00;4.32;;;25.90;88.30;;;;;;5073977;28;20017;-76
2021/06/24 07:27:34;;;;;;;11.05;4.65;;;25.90;87.90;;;;;;5074235;28;20024;-76
2021/06/24 07:30:00;;;;;;;18.35;4.60;;;26.00;88.60;;;;;;5073988;28;20045;-76
2021/06/24 07:32:26;;;;;;;12.10;4.32;;;26.00;87.80;;;;;;5074122;28;20109;-77
2021/06/24 07:34:52;;;;;;;11.95;4.53;;;26.10;88.20;;;;;;5073921;28;20032;-76
2021/06/24 07:37:18;;;;;;;14.10;4.40;;;26.10;87.70;;;;;;5074219;28;20021;-76
2021/06/24 07:39:43;;;;;;;9.80;4.22;;;26.20;86.20;;;;;;5074033;28;20017;-76
2021/06/24 07:42:09;;;;;;;9.05;3.95;;;26.20;87.20;;;;;;5086733;28;20024;-76
2021/06/24 07:44:35;;;;;;;12.57;4.70;;;26.30;86.00;;;;;;5075882;28;20031;-76
2021/06/24 07:47:01;;;;;;;9.05;4.63;;;26.40;85.90;;;;;;5094081;28;20627;-76
2021/06/24 07:49:27;;;;;;;13.02;4.75;;;26.40;85.20;;;;;;5094139;28;20443;-76
2021/06/24 07:51:52;;;;;;;13.30;4.65;;;26.50;85.90;;;;;;5093914;28;20032;-76
2021/06/24 07:54:18;;;;;;;11.20;3.78;;;26.60;86.30;;;;;;5094001;28;20039;-76
2021/06/24 07:56:44;;;;;;;10.35;4.22;;;26.60;84.60;;;;;;5075828;28;20476;-76
2021/06/24 07:59:12;;;;;;;10.15;4.10;;;26.60;84.40;;;;;;5093875;28;20096;-76
2021/06/24 08:01:41;;;;;;;17.23;4.55;;;26.70;84.20;;;;;;5093897;28;20024;-76
2021/06/24 08:04:07;;;;;;;9.35;4.32;;;26.70;85.30;;;;;;5075713;28;20070;-76
2021/06/24 08:06:33;;;;;;;13.85;4.35;;;26.90;84.40;;;;;;5093599;28;20078;-76
2021/06/24 08:08:59;;;;;;;14.95;4.80;;;26.90;83.50;;;;;;5094420;28;20036;-76
2021/06/24 08:11:25;;;;;;;6.25;3.83;;;26.90;83.60;;;;;;5076799;28;20024;-76
2021/06/24 08:13:51;;;;;;;14.55;4.28;;;26.90;82.80;;;;;;5090404;28;20031;-76
2021/06/24 08:16:16;;;;;;;13.65;5.03;;;27.00;82.70;;;;;;5089721;28;20031;-77
2021/06/24 08:18:43;;;;;;;9.25;4.22;;;27.00;82.10;;;;;;5090317;28;20024;-76
2021/06/24 08:21:09;;;;;;;7.82;4.70;;;27.10;83.70;;;;;;5090671;28;20052;-76
2021/06/24 08:23:36;;;;;;;8.27;4.05;;;27.10;81.70;;;;;;5087278;28;20020;-76
2021/06/24 08:26:02;;;;;;;11.48;4.05;;;27.20;80.80;;;;;;5093107;28;20062;-77
2021/06/24 08:28:29;;;;;;;12.15;4.45;;;27.20;80.60;;;;;;5092625;28;20091;-75
2021/06/24 08:30:55;;;;;;;9.55;5.07;;;27.30;83.00;;;;;;5093068;28;20024;-75
2021/06/24 08:33:21;;;;;;;7.90;4.22;;;27.40;81.80;;;;;;5064945;28;20020;-75
2021/06/24 08:35:47;;;;;;;12.70;4.13;;;27.40;81.90;;;;;;5092913;28;20389;-75
2021/06/24 08:38:15;;;;;;;4.75;4.05;;;27.40;82.40;;;;;;5093289;28;20027;-74
2021/06/24 08:40:41;;;;;;;6.45;3.58;;;27.50;80.50;;;;;;5092819;28;20028;-75
2021/06/24 08:43:10;;;;;;;10.30;4.18;;;27.40;80.30;;;;;;5092032;28;20559;-75
2021/06/24 08:45:38;;;;;;;12.15;3.58;;;27.40;80.20;;;;;;5074728;28;20035;-75
2021/06/24 08:48:13;;;;;;;12.23;4.65;;;27.50;82.60;;;;;;5093128;28;20123;-75
2021/06/24 08:50:43;;;;;;;8.70;3.70;;;27.50;81.60;;;;;;5093175;28;20081;-75
2021/06/24 08:53:08;;;;;;;11.48;3.80;;;27.70;80.10;;;;;;5092835;28;20089;-75
2021/06/24 08:55:40;;;;;;;6.90;3.42;;;27.90;77.50;;;;;;5092699;28;20470;-75
2021/06/24 08:58:07;;;;;;;9.73;3.85;;;27.90;75.80;;;;;;5092975;28;20517;-75
2021/06/24 09:00:33;;;;;;;9.35;3.90;;;27.90;75.10;;;;;;5092605;28;20028;-75
2021/06/24 09:03:14;;;;;;;6.95;3.60;;;28.00;71.50;;;;;;5091502;28;20367;-75
2021/06/24 09:05:50;;;;;;;10.35;3.88;;;27.90;72.90;;;;;;5072294;28;20020;-75
2021/06/24 09:08:24;;;;;;;7.80;3.55;;;27.90;75.20;;;;;;5072407;28;20031;-75
2021/06/24 09:11:12;;;;;;;13.25;3.88;;;27.90;72.30;;;;;;5074043;28;20020;-75
2021/06/24 09:13:40;;;;;;;9.40;3.83;;;28.00;72.50;;;;;;5092479;28;20027;-75
2021/06/24 09:16:17;;;;;;;11.13;3.28;;;28.00;70.50;;;;;;5092481;28;20020;-75
2021/06/24 09:18:43;;;;;;;8.15;4.50;;;27.90;70.00;;;;;;5092413;28;20477;-75
2021/06/24 09:21:25;;;;;;;12.35;3.10;;;28.00;69.30;;;;;;5092521;28;20028;-75
2021/06/24 09:23:53;;;;;;;7.13;2.75;;;28.10;71.20;;;;;;5088394;28;20018;-75
2021/06/24 09:26:21;;;;;;;9.90;2.83;;;28.20;72.50;;;;;;5072100;28;20017;-75
2021/06/24 09:28:50;;;;;;;8.40;3.17;;;28.30;70.80;;;;;;5071725;28;20098;-75
2021/06/24 09:31:34;;;;;;;5.72;2.58;;;28.30;71.00;;;;;;5054035;28;20547;-75
2021/06/24 09:34:08;;;;;;;7.32;2.90;;;28.30;71.70;;;;;;5072047;28;20154;-75
2021/06/24 09:36:40;;;;;;;8.30;4.07;;;28.40;71.60;;;;;;5071871;28;20016;-75
2021/06/24 09:39:10;;;;;;;3.85;3.17;;;28.40;69.10;;;;;;5053724;28;20116;-75
2021/06/24 09:41:37;;;;;;;8.82;4.20;;;28.40;69.90;;;;;;5079904;28;20505;-75
2021/06/24 09:44:20;;;;;;;6.10;3.22;;;28.30;71.30;;;;;;5092078;28;20034;-75
2021/06/24 09:46:46;;;;;;;8.73;3.92;;;28.30;71.20;;;;;;5092178;28;20020;-75
2021/06/24 09:49:23;;;;;;;6.78;3.90;;;28.50;70.70;;;;;;5091845;28;20111;-75
2021/06/24 09:51:51;;;;;;;7.35;3.58;;;28.60;71.80;;;;;;5091698;28;20028;-75
2021/06/24 09:54:17;;;;;;;8.98;4.32;;;28.50;72.10;;;;;;5073600;28;20338;-75
2021/06/24 09:56:45;;;;;;;9.88;4.07;;;28.60;72.90;;;;;;5091739;28;20543;-75
2021/06/24 09:59:13;;;;;;;8.07;3.53;;;28.70;71.30;;;;;;5091882;28;20023;-75
2021/06/24 10:01:42;;;;;;;6.43;3.50;;;28.70;70.60;;;;;;5073744;28;20055;-75
2021/06/24 10:04:19;;;;;;;6.63;3.38;;;28.80;70.30;;;;;;5091563;28;20020;-75
2021/06/24 10:06:49;;;;;;;7.22;2.83;;;28.70;68.80;;;;;;5091793;28;20485;-75
2021/06/24 10:09:16;;;;;;;8.38;3.22;;;28.80;69.30;;;;;;5091830;28;20050;-75
2021/06/24 10:11:42;;;;;;;3.85;2.80;;;28.90;68.00;;;;;;5073615;28;20032;-74
2021/06/24 10:14:09;;;;;;;6.70;2.33;;;29.00;66.50;;;;;;5091539;28;20313;-75
2021/06/24 10:16:34;;;;;;;4.53;1.92;;;29.00;64.90;;;;;;5091683;28;20020;-75
2021/06/24 10:19:01;;;;;;;4.05;2.03;;;29.20;61.90;;;;;;5091515;28;20036;-75
2021/06/24 10:21:30;;;;;;;6.07;1.52;;;29.20;59.20;;;;;;5091517;28;20020;-75
2021/06/24 10:24:00;;;;;;;4.53;2.08;;;29.20;57.10;;;;;;5091500;28;20020;-75
2021/06/24 10:26:27;;;;;;;3.25;1.80;;;29.20;57.60;;;;;;5073346;28;20024;-75
2021/06/24 10:29:17;;;;;;;6.55;2.10;;;29.30;57.20;;;;;;5073359;28;20055;-75
2021/06/24 10:31:44;;;;;;;3.33;1.75;;;29.40;56.90;;;;;;5091284;28;20569;-75
2021/06/24 10:34:12;;;;;;;4.40;1.85;;;29.50;55.30;;;;;;5073411;28;20023;-75
2021/06/24 10:36:38;;;;;;;3.17;1.60;;;29.50;53.40;;;;;;5095635;28;20020;-75
2021/06/24 10:39:06;;;;;;;2.63;1.80;;;29.50;52.20;;;;;;5095444;28;20370;-75
2021/06/24 10:42:00;;;;;;;5.18;1.70;;;29.70;52.30;;;;;;5076937;28;20017;-75
2021/06/24 10:44:52;;;;;;;1.60;1.30;;;29.70;51.60;;;;;;5095322;28;20031;-75
2021/06/24 10:47:34;;;;;;;1.30;1.20;;;29.80;52.10;;;;;;5095224;28;20017;-75
2021/06/24 10:52:57;;;;;;;5.45;1.23;;;30.00;51.80;;;;;;5095116;28;20549;-75
2021/06/24 10:55:34;;;;;;;1.30;1.20;;;30.20;51.90;;;;;;5095002;28;20103;-75
2021/06/24 10:58:20;;;;;;;1.90;1.25;;;30.20;50.40;;;;;;5095169;28;20020;-75
2021/06/24 11:00:55;;;;;;;3.17;1.40;;;30.20;51.70;;;;;;5094359;28;20040;-75
2021/06/24 11:03:30;;;;;;;1.58;1.10;;;30.20;50.70;;;;;;5076840;28;20016;-75
2021/06/24 11:06:10;;;;;;;7.35;1.70;;;30.20;50.20;;;;;;5094828;28;20032;-75
2021/06/24 11:08:36;;;;;;;1.48;1.38;;;30.20;50.00;;;;;;5094969;28;20481;-75
2021/06/24 11:11:07;;;;;;;3.40;1.58;;;30.30;49.40;;;;;;5076395;28;20028;-75
2021/06/24 11:13:39;;;;;;;2.67;1.45;;;30.20;50.30;;;;;;5094645;28;20462;-75
2021/06/24 11:16:13;;;;;;;2.25;1.45;;;30.30;49.90;;;;;;5087907;28;20019;-75
2021/06/24 11:18:48;;;;;;;3.58;1.45;;;30.30;49.20;;;;;;5074255;28;20066;-75
2021/06/24 11:21:21;;;;;;;3.00;1.52;;;30.50;48.10;;;;;;5074362;28;20107;-75
2021/06/24 11:23:54;;;;;;;2.85;1.23;;;30.40;47.90;;;;;;5074319;28;20016;-75
2021/06/24 11:26:26;;;;;;;4.82;1.33;;;30.50;47.70;;;;;;5074141;28;20017;-75
2021/06/24 11:31:53;;;;;;;3.95;1.15;;;30.60;48.50;;;;;;5074214;28;20134;-75
2021/06/24 11:37:22;;;;;;;2.58;1.50;;;30.80;47.00;;;;;;5073308;28;20024;-75
2021/06/24 11:39:59;;;;;;;1.55;1.45;;;30.80;46.50;;;;;;5073910;28;20032;-75
2021/06/24 11:42:32;;;;;;;4.88;1.60;;;30.80;48.10;;;;;;5070730;28;20378;-75
2021/06/24 11:44:59;;;;;;;3.13;1.40;;;30.90;48.70;;;;;;5093967;28;20039;-75
2021/06/24 11:47:35;;;;;;;1.25;1.15;;;31.00;50.40;;;;;;5074647;28;20028;-75
2021/06/24 12:04:16;;;;;;;3.95;1.70;;;31.50;48.40;;;;;;5093660;28;20160;-75
2021/06/24 12:06:56;;;;;;;1.80;1.42;;;31.60;47.50;;;;;;5093783;28;20600;-75
2021/06/24 12:09:24;;;;;;;1.60;1.50;;;31.60;46.50;;;;;;5093581;28;20097;-75
2021/06/24 12:11:58;;;;;;;1.85;1.52;;;31.60;46.50;;;;;;5093555;28;20078;-75
2021/06/24 12:14:26;;;;;;;2.17;1.80;;;31.70;46.30;;;;;;5075249;28;20367;-75
2021/06/24 12:17:19;;;;;;;9.50;1.75;;;31.80;46.20;;;;;;5075485;28;20028;-75
2021/06/24 12:20:04;;;;;;;1.35;1.25;;;31.90;45.90;;;;;;5093455;28;20024;-75
2021/06/24 12:22:36;;;;;;;3.83;1.45;;;32.00;45.00;;;;;;5093402;28;20020;-75
2021/06/24 12:25:34;;;;;;;4.30;1.05;;;32.10;45.50;;;;;;5093187;28;20020;-75
2021/06/24 12:28:05;;;;;;;3.05;1.17;;;32.10;43.40;;;;;;5092947;28;20051;-75
2021/06/24 12:30:36;;;;;;;5.30;0.93;;;32.20;41.70;;;;;;5093262;28;20016;-75
2021/06/24 12:33:03;;;;;;;;;;;32.10;41.70;;;;;;5093549;28;20055;-75
2021/06/24 12:35:36;;;;;;;1.40;1.30;;;32.20;40.80;;;;;;5093097;28;19904;-75
2021/06/24 12:38:06;;;;;;;1.42;0.98;;;32.30;41.40;;;;;;5093145;28;20020;-75
2021/06/24 12:40:36;;;;;;;4.00;1.70;;;32.60;40.90;;;;;;5075248;28;20103;-75
2021/06/24 12:43:03;;;;;;;2.42;1.50;;;32.60;40.70;;;;;;5074866;28;20020;-75
2021/06/24 12:45:33;;;;;;;3.65;1.20;;;32.70;42.00;;;;;;5074710;28;20386;-75
2021/06/24 12:47:59;;;;;;;1.75;1.65;;;32.70;42.20;;;;;;5074091;28;20171;-75
2021/06/24 12:50:35;;;;;;;5.80;1.30;;;32.70;40.30;;;;;;5093357;28;20499;-75
2021/06/24 12:53:09;;;;;;;3.15;1.60;;;32.90;40.30;;;;;;5090253;28;20114;-75
2021/06/24 12:55:51;;;;;;;3.60;1.70;;;32.80;40.40;;;;;;5090405;28;20020;-75
2021/06/24 12:58:26;;;;;;;3.20;1.48;;;32.90;38.90;;;;;;5091683;28;20069;-74
2021/06/24 13:00:59;;;;;;;2.92;1.52;;;32.90;38.60;;;;;;5093886;28;20032;-75
2021/06/24 13:03:39;;;;;;;2.83;1.25;;;33.10;39.50;;;;;;5093934;28;20029;-75
2021/06/24 13:06:18;;;;;;;2.47;1.55;;;33.10;39.60;;;;;;5094233;28;20103;-74
2021/06/24 13:09:06;;;;;;;4.05;1.30;;;33.30;40.00;;;;;;5075759;28;20339;-74
2021/06/24 13:11:34;;;;;;;2.55;1.23;;;33.30;41.00;;;;;;5094051;28;20077;-74
2021/06/24 13:14:04;;;;;;;3.85;1.00;;;33.50;40.20;;;;;;5093813;28;20047;-75
2021/06/24 13:16:45;;;;;;;2.40;1.05;;;33.40;38.40;;;;;;5092110;28;20028;-74